Terminal Aerodrome Forecast
Issued by NWS Twin Cities, MN

Home | Current Version | Previous Version | Graphics & Text | Print | Product List | Glossary On
Versions: 1 2 3 4 5 6 7 8 9 10 11 12 13 14 15 16
000
FTUS43 KMPX 281946 AAA
TAFSTC
TAF AMD
KSTC 281946Z 2820/2918 19010KT P6SM SCT250
     FM290200 18003KT P6SM SCT250
     FM290900 00000KT 1SM BR SKC
      TEMPO 2910/2913 1/2SM FG BKN002
     FM291400 17005KT P6SM SKC=

USA.gov is the U.S. government's official web portal to all federal, state and local government web resources and services.